createdAt,value
2018-07-28T00:02:08.134Z,100232.80
2018-07-28T00:04:36.173Z,100225.56
2018-07-28T00:07:04.974Z,100222.00
2018-07-28T00:09:33.000Z,100227.09
2018-07-28T00:12:01.018Z,100226.08
2018-07-28T00:14:29.076Z,100221.67
2018-07-28T00:16:57.142Z,100222.84
2018-07-28T00:19:25.162Z,100230.05
2018-07-28T00:21:53.337Z,100227.78
2018-07-28T00:24:21.362Z,100223.77
2018-07-28T00:26:49.385Z,100223.70
2018-07-28T00:29:17.404Z,100222.67
2018-07-28T00:31:45.436Z,100222.87
2018-07-28T00:34:13.459Z,100223.20
2018-07-28T00:36:41.500Z,100221.27
2018-07-28T00:39:11.733Z,100218.38
2018-07-28T00:41:39.766Z,100222.11
2018-07-28T00:44:07.840Z,100218.34
2018-07-28T00:46:36.504Z,100207.02
2018-07-28T00:49:05.005Z,100200.23
2018-07-28T00:51:33.061Z,100204.68
2018-07-28T00:54:01.101Z,100193.16
2018-07-28T00:56:29.123Z,100189.36
2018-07-28T00:58:57.229Z,100185.85
2018-07-28T01:01:25.281Z,100185.75
2018-07-28T01:03:53.346Z,100184.97
2018-07-28T01:06:21.456Z,100178.01
2018-07-28T01:08:49.520Z,100177.17
2018-07-28T01:11:17.541Z,100170.83
2018-07-28T01:13:45.577Z,100173.80
2018-07-28T01:16:13.604Z,100164.45
2018-07-28T01:18:41.633Z,100168.14
2018-07-28T01:21:09.664Z,100161.57
2018-07-28T01:23:38.701Z,100163.95
2018-07-28T01:26:06.721Z,100158.91
2018-07-28T01:28:34.739Z,100148.33
2018-07-28T01:31:02.807Z,100148.33
2018-07-28T01:33:30.825Z,100149.37
2018-07-28T01:35:58.856Z,100152.98
2018-07-28T01:38:26.864Z,100148.59
2018-07-28T01:40:54.884Z,100140.56
2018-07-28T01:43:22.905Z,100142.81
2018-07-28T01:45:50.921Z,100145.70
2018-07-28T01:48:19.246Z,100141.41
2018-07-28T01:50:47.262Z,100141.41
2018-07-28T01:53:15.285Z,100132.66
2018-07-28T01:55:43.315Z,100129.16
2018-07-28T01:58:11.340Z,100146.03
2018-07-28T02:00:39.377Z,100131.15
2018-07-28T02:03:07.403Z,100126.52
2018-07-28T02:05:35.421Z,100117.97
2018-07-28T02:08:03.440Z,100111.48
2018-07-28T02:10:31.452Z,100117.97
2018-07-28T02:12:59.488Z,100116.75
2018-07-28T02:15:27.512Z,100108.11
2018-07-28T02:17:55.529Z,100113.64
2018-07-28T02:20:23.560Z,100110.06
2018-07-28T02:22:51.640Z,100095.98
2018-07-28T02:25:19.693Z,100090.88
2018-07-28T02:27:47.716Z,100090.77
2018-07-28T02:30:15.750Z,100089.44
2018-07-28T02:32:43.765Z,100088.21
2018-07-28T02:35:11.794Z,100084.92
2018-07-28T02:37:39.817Z,100077.02
2018-07-28T02:40:07.883Z,100084.91
2018-07-28T02:42:35.916Z,100081.61
2018-07-28T02:45:05.344Z,100075.35
2018-07-28T02:47:33.349Z,100070.59
2018-07-28T02:50:01.543Z,100063.55
2018-07-28T02:52:29.569Z,100064.89
2018-07-28T02:54:57.625Z,100061.16
2018-07-28T02:57:25.654Z,100059.10
2018-07-28T02:59:53.669Z,100056.22
2018-07-28T03:02:21.689Z,100053.34
2018-07-28T03:04:49.867Z,100051.59
2018-07-28T03:07:17.884Z,100043.08
2018-07-28T03:09:45.903Z,100039.58
2018-07-28T03:12:13.929Z,100036.50
2018-07-28T03:14:41.961Z,100034.26
2018-07-28T03:17:09.989Z,100033.11
2018-07-28T03:19:38.021Z,100030.86
2018-07-28T03:22:06.413Z,100026.03
2018-07-28T03:24:34.426Z,100020.19
2018-07-28T03:27:02.436Z,100021.73
2018-07-28T03:29:30.539Z,100017.12
2018-07-28T03:31:58.535Z,100011.25
2018-07-28T03:34:26.564Z,100001.62
2018-07-28T03:36:54.677Z,100000.27
2018-07-28T03:39:22.667Z,99994.53
2018-07-28T03:41:51.099Z,99998.20
2018-07-28T03:44:19.109Z,100001.29
2018-07-28T03:46:47.136Z,100016.46
2018-07-28T03:49:15.212Z,100043.95
2018-07-28T03:51:43.161Z,100043.34
2018-07-28T03:54:11.174Z,100040.86
2018-07-28T03:56:39.293Z,100076.23
2018-07-28T03:59:07.740Z,100053.23
2018-07-28T04:01:35.842Z,100058.19
2018-07-28T04:04:04.911Z,100129.11
2018-07-28T04:06:32.960Z,100057.11
2018-07-28T04:09:00.985Z,100052.69
2018-07-28T04:11:29.011Z,100066.43
2018-07-28T04:13:57.032Z,100048.28
2018-07-28T04:16:25.041Z,100082.13
2018-07-28T04:18:53.069Z,100076.59
2018-07-28T04:21:21.092Z,100091.59
2018-07-28T04:23:49.111Z,100095.20
2018-07-28T04:26:17.133Z,100072.67
2018-07-28T04:28:45.154Z,100069.33
2018-07-28T04:31:13.181Z,100065.77
2018-07-28T04:33:41.185Z,100055.24
2018-07-28T04:36:09.218Z,100067.98
2018-07-28T04:38:37.228Z,100060.51
2018-07-28T04:41:06.242Z,100059.89
2018-07-28T04:43:34.254Z,100045.83
2018-07-28T04:46:02.440Z,100047.58
2018-07-28T04:48:30.458Z,100053.24
2018-07-28T04:50:58.476Z,100056.11
2018-07-28T04:53:26.509Z,100059.41
2018-07-28T04:55:54.521Z,100064.89
2018-07-28T04:58:22.584Z,100079.14
2018-07-28T05:00:50.608Z,100065.51
2018-07-28T05:03:18.616Z,100073.88
2018-07-28T05:05:46.650Z,100056.05
2018-07-28T05:08:14.664Z,100046.83
2018-07-28T05:10:42.685Z,100051.64
2018-07-28T05:13:10.712Z,100056.98
2018-07-28T05:15:38.724Z,100042.41
2018-07-28T05:18:06.760Z,100049.70
2018-07-28T05:20:34.784Z,100065.83
2018-07-28T05:23:02.800Z,100067.34
2018-07-28T05:25:30.844Z,100052.05
2018-07-28T05:27:58.861Z,100055.15
2018-07-28T05:30:26.877Z,100050.72
2018-07-28T05:32:54.901Z,100035.74
2018-07-28T05:35:22.921Z,100024.63
2018-07-28T05:37:50.949Z,100031.13
2018-07-28T05:40:18.968Z,100030.59
2018-07-28T05:42:47.019Z,100031.30
2018-07-28T05:45:15.205Z,100032.45
2018-07-28T05:47:43.229Z,100024.45
2018-07-28T05:50:11.266Z,100027.63
2018-07-28T05:52:39.274Z,100020.44
2018-07-28T05:55:07.308Z,100014.48
2018-07-28T05:57:35.381Z,100016.01
2018-07-28T06:00:03.460Z,100019.83
2018-07-28T06:02:31.612Z,100015.80
2018-07-28T06:04:59.547Z,100024.42
2018-07-28T06:07:27.637Z,100017.23
2018-07-28T06:09:55.697Z,100003.34
2018-07-28T06:12:23.729Z,99998.10
2018-07-28T06:14:51.756Z,99999.94
2018-07-28T06:17:20.472Z,100002.70
2018-07-28T06:19:48.505Z,99997.84
2018-07-28T06:22:16.690Z,99999.95
2018-07-28T06:24:44.732Z,99986.06
2018-07-28T06:27:12.799Z,99983.73
2018-07-28T06:29:40.813Z,99980.52
2018-07-28T06:32:09.193Z,99974.48
2018-07-28T06:34:37.225Z,99978.16
2018-07-28T06:37:05.413Z,99982.39
2018-07-28T06:39:33.528Z,99971.51
2018-07-28T06:42:01.533Z,99979.14
2018-07-28T06:44:29.573Z,99969.05
2018-07-28T06:46:57.619Z,99987.51
2018-07-28T06:49:25.742Z,99986.55
2018-07-28T06:51:53.909Z,99984.96
2018-07-28T06:54:21.948Z,100002.54
2018-07-28T06:56:49.988Z,100017.31
2018-07-28T06:59:18.040Z,100069.26
2018-07-28T07:01:46.113Z,100096.81
2018-07-28T07:04:14.277Z,100088.99
2018-07-28T07:06:42.314Z,100106.39
2018-07-28T07:09:11.769Z,100116.86
2018-07-28T07:11:40.875Z,100110.94
2018-07-28T07:14:08.841Z,100125.50
2018-07-28T07:16:36.897Z,100149.80
2018-07-28T07:19:05.017Z,100150.50
2018-07-28T07:21:33.193Z,100152.02
2018-07-28T07:24:01.238Z,100177.77
2018-07-28T07:26:29.292Z,100182.67
2018-07-28T07:28:57.326Z,100179.05
2018-07-28T07:31:25.379Z,100182.25
2018-07-28T07:33:53.414Z,100180.80
2018-07-28T07:36:21.461Z,100180.22
2018-07-28T07:38:49.501Z,100169.46
2018-07-28T07:41:17.792Z,100174.19
2018-07-28T07:43:46.062Z,100171.63
2018-07-28T07:46:14.098Z,100179.28
2018-07-28T07:48:42.215Z,100192.66
2018-07-28T07:51:10.269Z,100186.44
2018-07-28T07:53:38.298Z,100180.03
2018-07-28T07:56:06.338Z,100176.13
2018-07-28T07:58:34.586Z,100176.95
2018-07-28T08:01:02.604Z,100162.02
2018-07-28T08:03:30.648Z,100160.78
2018-07-28T08:05:58.685Z,100162.05
2018-07-28T08:08:26.725Z,100167.50
2018-07-28T08:10:54.754Z,100159.37
2018-07-28T08:13:22.868Z,100142.50
2018-07-28T08:15:52.688Z,100130.98
2018-07-28T08:18:20.722Z,100148.55
2018-07-28T08:20:48.747Z,100152.30
2018-07-28T08:23:17.043Z,100163.78
2018-07-28T08:25:45.126Z,100162.30
2018-07-28T08:28:13.221Z,100158.56
2018-07-28T08:30:41.246Z,100154.99
2018-07-28T08:33:09.269Z,100160.07
2018-07-28T08:35:37.307Z,100159.70
2018-07-28T08:38:05.345Z,100146.98
2018-07-28T08:40:33.386Z,100146.59
2018-07-28T08:43:01.390Z,100151.31
2018-07-28T08:45:29.693Z,100151.97
2018-07-28T08:47:57.760Z,100134.44
2018-07-28T08:50:25.845Z,100131.14
2018-07-28T08:52:53.884Z,100143.92
2018-07-28T08:55:22.012Z,100149.22
2018-07-28T08:57:50.083Z,100153.39
2018-07-28T09:00:18.120Z,100152.22
2018-07-28T09:02:46.141Z,100158.63
2018-07-28T09:05:14.309Z,100161.58
2018-07-28T09:07:42.333Z,100168.38
2018-07-28T09:10:10.571Z,100165.47
2018-07-28T09:12:38.577Z,100163.34
2018-07-28T09:15:07.669Z,100169.81
2018-07-28T09:17:35.713Z,100165.92
2018-07-28T09:20:03.753Z,100169.59
2018-07-28T09:22:31.826Z,100173.92
2018-07-28T09:24:59.801Z,100178.55
2018-07-28T09:27:27.828Z,100181.73
2018-07-28T09:29:55.865Z,100181.34
2018-07-28T09:32:23.906Z,100193.78
2018-07-28T09:34:52.025Z,100203.16
2018-07-28T09:37:20.078Z,100204.59
2018-07-28T09:39:48.114Z,100193.81
2018-07-28T09:42:16.305Z,100203.50
2018-07-28T09:44:44.333Z,100209.47
2018-07-28T09:47:12.362Z,100213.39
2018-07-28T09:49:40.381Z,100224.25
2018-07-28T09:52:08.420Z,100232.12
2018-07-28T09:54:37.085Z,100239.42
2018-07-28T09:57:05.136Z,100234.45
2018-07-28T09:59:33.170Z,100244.70
2018-07-28T10:02:01.192Z,100249.52
2018-07-28T10:04:29.245Z,100248.66
2018-07-28T10:06:57.280Z,100250.16
2018-07-28T10:09:25.310Z,100256.85
2018-07-28T10:11:53.333Z,100271.89
2018-07-28T10:14:21.409Z,100275.86
2018-07-28T10:16:49.457Z,100271.41
2018-07-28T10:19:17.489Z,100283.05
2018-07-28T10:21:45.700Z,100298.63
2018-07-28T10:24:13.736Z,100294.87
2018-07-28T10:26:41.786Z,100308.03
2018-07-28T10:29:09.844Z,100301.23
2018-07-28T10:31:37.865Z,100300.94
2018-07-28T10:34:05.936Z,100292.59
2018-07-28T10:36:33.998Z,100303.91
2018-07-28T10:39:02.032Z,100309.04
2018-07-28T10:41:30.060Z,100314.28
2018-07-28T10:43:58.089Z,100316.78
2018-07-28T10:46:26.124Z,100333.55
2018-07-28T10:48:54.132Z,100328.92
2018-07-28T10:51:22.154Z,100322.95
2018-07-28T10:53:50.173Z,100313.27
2018-07-28T10:56:18.186Z,100312.65
2018-07-28T10:58:46.260Z,100321.39
2018-07-28T11:01:14.289Z,100322.93
2018-07-28T11:03:46.332Z,100325.20
2018-07-28T11:06:14.357Z,100330.14
2018-07-28T11:08:42.408Z,100318.73
2018-07-28T11:11:10.441Z,100318.81
2018-07-28T11:16:05.257Z,100319.23
2018-07-28T11:18:33.442Z,100309.91
2018-07-28T11:21:01.600Z,100297.33
2018-07-28T11:23:40.860Z,100287.13
2018-07-28T11:26:08.951Z,100293.20
2018-07-28T11:28:36.929Z,100293.88
2018-07-28T11:31:04.981Z,100306.53
2018-07-28T11:33:44.402Z,100328.50
2018-07-28T11:36:23.786Z,100325.59
2018-07-28T11:39:03.237Z,100317.93
2018-07-28T11:43:48.583Z,100312.86
2018-07-28T11:46:16.613Z,100309.89
2018-07-28T11:48:44.629Z,100308.51
2018-07-28T11:51:12.816Z,100316.48
2018-07-28T11:53:40.948Z,100318.38
2018-07-28T11:56:08.964Z,100316.35
2018-07-28T11:58:36.990Z,100315.75
2018-07-28T12:01:05.280Z,100323.98
2018-07-28T12:03:33.600Z,100318.63
2018-07-28T12:06:01.788Z,100317.38
2018-07-28T12:08:29.816Z,100314.31
2018-07-28T12:10:57.856Z,100308.52
2018-07-28T12:13:25.948Z,100319.59
2018-07-28T12:15:53.975Z,100312.33
2018-07-28T12:18:22.159Z,100322.13
2018-07-28T12:20:50.168Z,100312.21
2018-07-28T12:23:18.192Z,100312.98
2018-07-28T12:25:46.214Z,100316.83
2018-07-28T12:28:14.402Z,100325.34
2018-07-28T12:30:42.422Z,100324.23
2018-07-28T12:33:10.465Z,100326.14
2018-07-28T12:35:38.497Z,100325.63
2018-07-28T12:38:06.556Z,100319.06
2018-07-28T12:40:35.042Z,100313.00
2018-07-28T12:43:03.069Z,100309.86
2018-07-28T12:45:31.110Z,100310.89
2018-07-28T12:47:59.221Z,100309.27
2018-07-28T12:50:27.248Z,100299.10
2018-07-28T12:52:55.273Z,100294.69
2018-07-28T12:55:23.373Z,100299.23
2018-07-28T12:57:51.329Z,100297.19
2018-07-28T13:00:19.546Z,100288.89
2018-07-28T13:02:47.572Z,100293.91
2018-07-28T13:05:15.587Z,100303.35
2018-07-28T13:07:43.600Z,100304.64
2018-07-28T13:10:11.645Z,100295.95
2018-07-28T13:12:39.646Z,100288.91
2018-07-28T13:15:07.702Z,100290.45
2018-07-28T13:17:35.718Z,100298.48
2018-07-28T13:20:03.776Z,100291.09
2018-07-28T13:22:31.829Z,100280.17
2018-07-28T13:24:59.866Z,100277.09
2018-07-28T13:27:27.907Z,100277.30
2018-07-28T13:29:56.030Z,100278.90
2018-07-28T13:32:23.996Z,100274.31
2018-07-28T13:34:52.212Z,100267.29
2018-07-28T13:37:20.240Z,100274.30
2018-07-28T13:39:48.265Z,100264.34
2018-07-28T13:42:16.295Z,100257.86
2018-07-28T13:44:44.358Z,100256.88
2018-07-28T13:47:12.387Z,100264.13
2018-07-28T13:49:40.445Z,100272.80
2018-07-28T13:52:08.469Z,100274.09
2018-07-28T13:54:36.897Z,100267.55
2018-07-28T13:57:05.137Z,100279.59
2018-07-28T13:59:33.166Z,100291.75
2018-07-28T14:02:01.248Z,100283.34
2018-07-28T14:04:29.389Z,100293.34
2018-07-28T14:06:57.500Z,100290.20
2018-07-28T14:09:25.540Z,100288.44
2018-07-28T14:11:53.565Z,100276.55
2018-07-28T14:14:21.588Z,100277.28
2018-07-28T14:16:49.781Z,100269.55
2018-07-28T14:19:17.811Z,100255.00
2018-07-28T14:21:45.835Z,100252.34
2018-07-28T14:24:13.873Z,100255.62
2018-07-28T14:26:41.909Z,100259.41
2018-07-28T14:29:09.957Z,100269.62
2018-07-28T14:31:37.992Z,100275.70
2018-07-28T14:34:06.281Z,100299.38
2018-07-28T14:36:34.308Z,100348.77
2018-07-28T14:39:02.357Z,100353.91
2018-07-28T14:41:30.409Z,100374.23
2018-07-28T14:43:58.437Z,100393.86
2018-07-28T14:46:26.469Z,100400.30
2018-07-28T14:48:54.685Z,100405.04
2018-07-28T14:51:22.718Z,100405.64
2018-07-28T14:53:57.276Z,100427.34
2018-07-28T14:56:25.606Z,100425.18
2018-07-28T14:58:53.649Z,100419.44
2018-07-28T15:01:21.718Z,100424.14
2018-07-28T15:03:49.692Z,100428.14
2018-07-28T15:06:17.714Z,100441.92
2018-07-28T15:08:45.733Z,100454.27
2018-07-28T15:11:13.778Z,100454.28
2018-07-28T15:13:41.804Z,100461.61
2018-07-28T15:16:09.852Z,100465.31
2018-07-28T15:18:38.348Z,100469.69
2018-07-28T15:21:06.452Z,100465.89
2018-07-28T15:23:34.482Z,100465.54
2018-07-28T15:26:02.938Z,100474.70
2018-07-28T15:28:30.983Z,100472.54
2018-07-28T15:30:59.007Z,100476.20
2018-07-28T15:33:27.100Z,100485.30
2018-07-28T15:35:55.198Z,100491.52
2018-07-28T15:38:23.277Z,100490.94
2018-07-28T15:40:51.308Z,100497.70
2018-07-28T15:43:19.353Z,100491.05
2018-07-28T15:45:47.401Z,100498.77
2018-07-28T15:48:15.680Z,100491.48
2018-07-28T15:50:43.720Z,100490.22
2018-07-28T15:53:11.756Z,100494.86
2018-07-28T15:55:39.781Z,100506.77
2018-07-28T16:00:42.227Z,100515.11
2018-07-28T16:03:10.287Z,100520.58
2018-07-28T16:05:38.889Z,100515.69
2018-07-28T16:08:06.998Z,100509.02
2018-07-28T16:10:35.042Z,100505.88
2018-07-28T16:13:03.081Z,100504.38
2018-07-28T16:15:31.116Z,100495.41
2018-07-28T16:17:59.152Z,100481.45
2018-07-28T16:20:27.192Z,100476.75
2018-07-28T16:22:55.405Z,100471.28
2018-07-28T16:25:23.434Z,100470.34
2018-07-28T16:27:51.570Z,100472.44
2018-07-28T16:30:19.601Z,100472.89
2018-07-28T16:32:47.634Z,100469.79
2018-07-28T16:35:15.687Z,100470.73
2018-07-28T16:37:43.763Z,100468.88
2018-07-28T16:40:12.017Z,100473.28
2018-07-28T16:42:40.038Z,100480.53
2018-07-28T16:45:08.068Z,100483.42
2018-07-28T16:47:36.136Z,100488.45
2018-07-28T16:50:04.965Z,100498.55
2018-07-28T16:52:32.989Z,100496.19
2018-07-28T16:55:01.256Z,100488.63
2018-07-28T16:57:29.521Z,100492.62
2018-07-28T16:59:57.555Z,100493.94
2018-07-28T17:02:25.592Z,100486.41
2018-07-28T17:04:53.729Z,100484.17
2018-07-28T17:07:21.924Z,100489.81
2018-07-28T17:09:50.017Z,100493.57
2018-07-28T17:12:18.396Z,100489.83
2018-07-28T17:14:46.444Z,100499.84
2018-07-28T17:17:14.689Z,100497.01
2018-07-28T17:19:42.723Z,100510.78
2018-07-28T17:22:10.746Z,100508.31
2018-07-28T17:24:39.785Z,100518.08
2018-07-28T17:27:07.832Z,100522.98
2018-07-28T17:29:35.878Z,100529.31
2018-07-28T17:32:04.453Z,100533.50
2018-07-28T17:34:32.486Z,100539.03
2018-07-28T17:37:00.611Z,100545.06
2018-07-28T17:39:28.658Z,100553.15
2018-07-28T17:41:56.690Z,100553.81
2018-07-28T17:44:24.737Z,100561.58
2018-07-28T17:46:52.769Z,100571.34
2018-07-28T17:49:20.812Z,100578.05
2018-07-28T17:51:49.049Z,100580.72
2018-07-28T17:54:17.389Z,100589.79
2018-07-28T17:56:45.437Z,100599.52
2018-07-28T17:59:13.635Z,100598.91
2018-07-28T18:01:41.674Z,100607.94
2018-07-28T18:04:09.792Z,100611.24
2018-07-28T18:06:37.820Z,100617.70
2018-07-28T18:09:07.556Z,100625.25
2018-07-28T18:11:35.629Z,100626.78
2018-07-28T18:14:03.916Z,100635.95
2018-07-28T18:16:31.994Z,100638.55
2018-07-28T18:19:00.036Z,100652.55
2018-07-28T18:21:28.368Z,100660.45
2018-07-28T18:23:56.573Z,100658.67
2018-07-28T18:26:24.535Z,100671.14
2018-07-28T18:28:52.560Z,100677.49
2018-07-28T18:31:20.580Z,100671.18
2018-07-28T18:33:48.633Z,100679.81
2018-07-28T18:36:16.763Z,100681.48
2018-07-28T18:38:44.835Z,100671.80
2018-07-28T18:41:12.921Z,100675.75
2018-07-28T18:43:40.940Z,100675.07
2018-07-28T18:46:09.010Z,100676.40
2018-07-28T18:48:37.050Z,100679.75
2018-07-28T18:51:05.109Z,100676.81
2018-07-28T18:53:33.148Z,100672.47
2018-07-28T18:56:01.200Z,100680.95
2018-07-28T18:58:29.393Z,100685.82
2018-07-28T19:00:57.429Z,100683.84
2018-07-28T19:03:25.531Z,100686.50
2018-07-28T19:05:53.933Z,100679.02
2018-07-28T19:08:21.987Z,100690.46
2018-07-28T19:10:51.589Z,100690.19
2018-07-28T19:13:24.857Z,100692.54
2018-07-28T19:15:52.877Z,100701.88
2018-07-28T19:18:26.384Z,100704.58
2018-07-28T19:20:54.457Z,100697.48
2018-07-28T19:23:27.926Z,100702.49
2018-07-28T19:25:55.970Z,100704.01
2018-07-28T19:28:29.280Z,100708.18
2018-07-28T19:30:57.364Z,100709.20
2018-07-28T19:33:25.347Z,100710.73
2018-07-28T19:35:59.046Z,100714.91
2018-07-28T19:38:27.170Z,100721.39
2018-07-28T19:40:55.200Z,100719.22
2018-07-28T19:43:23.241Z,100724.91
2018-07-28T19:45:51.259Z,100729.88
2018-07-28T19:48:19.393Z,100729.77
2018-07-28T19:50:47.417Z,100733.78
2018-07-28T19:53:15.428Z,100734.47
2018-07-28T19:55:43.452Z,100740.13
2018-07-28T19:58:17.756Z,100750.80
2018-07-28T20:00:45.781Z,100763.63
2018-07-28T20:03:13.795Z,100768.97
2018-07-28T20:05:41.821Z,100768.81
2018-07-28T20:08:09.841Z,100774.49
2018-07-28T20:10:38.311Z,100785.09
2018-07-28T20:13:06.349Z,100791.08
2018-07-28T20:15:34.437Z,100788.25
2018-07-28T20:18:02.467Z,100791.09
2018-07-28T20:20:30.486Z,100793.08
2018-07-28T20:22:58.510Z,100799.89
2018-07-28T20:25:26.527Z,100809.17
2018-07-28T20:27:54.535Z,100813.97
2018-07-28T20:30:22.637Z,100815.28
2018-07-28T20:32:50.882Z,100816.95
2018-07-28T20:35:18.944Z,100816.77
2018-07-28T20:37:46.964Z,100825.55
2018-07-28T20:40:15.371Z,100835.46
2018-07-28T20:42:43.703Z,100835.32
2018-07-28T20:45:11.876Z,100839.83
2018-07-28T20:47:40.175Z,100843.47
2018-07-28T20:50:08.356Z,100844.63
2018-07-28T20:52:36.653Z,100855.25
2018-07-28T20:55:05.025Z,100864.39
2018-07-28T20:57:33.154Z,100866.02
2018-07-28T21:00:01.180Z,100864.66
2018-07-28T21:02:29.212Z,100870.30
2018-07-28T21:04:57.256Z,100863.47
2018-07-28T21:07:25.289Z,100866.55
2018-07-28T21:09:53.436Z,100870.15
2018-07-28T21:12:21.692Z,100873.41
2018-07-28T21:14:49.730Z,100877.86
2018-07-28T21:17:18.059Z,100877.16
2018-07-28T21:19:46.140Z,100876.63
2018-07-28T21:22:14.168Z,100881.38
2018-07-28T21:24:42.210Z,100887.85
2018-07-28T21:27:10.284Z,100887.66
2018-07-28T21:29:38.320Z,100887.83
2018-07-28T21:32:06.761Z,100886.11
2018-07-28T21:34:34.808Z,100880.78
2018-07-28T21:37:02.850Z,100886.73
2018-07-28T21:39:30.869Z,100886.06
2018-07-28T21:41:59.262Z,100885.38
2018-07-28T21:44:27.284Z,100891.30
2018-07-28T21:46:55.317Z,100893.08
2018-07-28T21:49:23.336Z,100894.89
2018-07-28T21:51:51.357Z,100900.80
2018-07-28T21:54:19.532Z,100903.91
2018-07-28T21:56:47.710Z,100910.30
2018-07-28T21:59:15.752Z,100907.28
2018-07-28T22:01:44.340Z,100903.23
2018-07-28T22:04:17.436Z,100905.61
2018-07-28T22:06:45.472Z,100907.02
2018-07-28T22:09:13.508Z,100911.20
2018-07-28T22:11:41.538Z,100918.87
2018-07-28T22:14:09.562Z,100923.52
2018-07-28T22:16:37.820Z,100931.67
2018-07-28T22:19:05.940Z,100928.77
2018-07-28T22:21:33.969Z,100929.03
2018-07-28T22:24:02.001Z,100926.13
2018-07-28T22:26:30.020Z,100925.77
2018-07-28T22:28:58.040Z,100928.36
2018-07-28T22:31:26.064Z,100934.44
2018-07-28T22:33:54.100Z,100943.84
2018-07-28T22:36:22.127Z,100938.77
2018-07-28T22:38:50.152Z,100948.96
2018-07-28T22:41:18.233Z,100947.22
2018-07-28T22:43:46.253Z,100946.84
2018-07-28T22:46:14.386Z,100942.78
2018-07-28T22:48:42.389Z,100939.11
2018-07-28T22:51:10.789Z,100936.35
2018-07-28T22:53:38.921Z,100931.91
2018-07-28T22:56:06.961Z,100931.21
2018-07-28T22:58:34.984Z,100941.63
2018-07-28T23:01:02.994Z,100936.86
2018-07-28T23:03:31.177Z,100938.92
2018-07-28T23:05:59.194Z,100937.75
2018-07-28T23:08:27.208Z,100946.61
2018-07-28T23:10:55.256Z,100942.58
2018-07-28T23:13:23.428Z,100945.48
2018-07-28T23:15:51.460Z,100944.23
2018-07-28T23:18:19.497Z,100942.66
2018-07-28T23:20:47.565Z,100941.66
2018-07-28T23:23:15.551Z,100945.23
2018-07-28T23:25:43.804Z,100940.20
2018-07-28T23:28:18.262Z,100940.35
2018-07-28T23:30:46.431Z,100944.24
2018-07-28T23:33:14.468Z,100943.41
2018-07-28T23:35:42.500Z,100947.66
2018-07-28T23:38:10.525Z,100952.39
2018-07-28T23:40:38.558Z,100952.31
2018-07-28T23:43:06.769Z,100955.94
2018-07-28T23:45:34.851Z,100961.21
2018-07-28T23:48:02.876Z,100959.30
2018-07-28T23:50:30.913Z,100957.21
2018-07-28T23:52:58.936Z,100969.52
2018-07-28T23:55:26.973Z,100972.27
2018-07-28T23:57:55.002Z,100976.92
